Oak Bluffs, Massachusetts
Current Conditions -  °F | °C
As of 7:53 PM on Wednesday 17 Dec 2014 (Local Time) from KMVY Reporting Station
Broken Clouds Broken Clouds  
Wind Chill: 42°   Ceiling: 7000
Heat Index: 46°   Visibility: 10mi
Dew Point: 38°   Wind: 8mph
Humidity: 73%   Direction: 280°W
Pressure: 29.75"   Gusts: NA
Location:  41.45°N, 70.56°W
Report Text: KMVY 180053Z AUTO 28007KT 250V310 10SM FEW034 BKN070 08/03 A2975 RMK AO2 SLP075 T00780033
Loading
Personal Weather Stations






























Interactive Weather Map New forecast layout! Learn more

10-Day Weather Forecast

Advertisements
Track Severe Weather on mobile